sensor_id;sensor_type;location;lat;lon;timestamp;temperature;humidity
25250;DHT22;13201;51.148;13.738;2023-02-01T00:01:44;5.30;99.90
25250;DHT22;13201;51.148;13.738;2023-02-01T00:04:10;5.30;99.90
25250;DHT22;13201;51.148;13.738;2023-02-01T00:06:36;5.30;99.90
25250;DHT22;13201;51.148;13.738;2023-02-01T00:09:01;5.30;99.90
25250;DHT22;13201;51.148;13.738;2023-02-01T00:11:27;5.30;99.90
25250;DHT22;13201;51.148;13.738;2023-02-01T00:13:53;5.40;99.90
25250;DHT22;13201;51.148;13.738;2023-02-01T00:16:24;5.40;99.90
25250;DHT22;13201;51.148;13.738;2023-02-01T00:18:55;5.40;99.90
25250;DHT22;13201;51.148;13.738;2023-02-01T00:21:22;5.40;99.90
25250;DHT22;13201;51.148;13.738;2023-02-01T00:23:48;5.40;99.90
25250;DHT22;13201;51.148;13.738;2023-02-01T00:28:50;5.40;99.90
25250;DHT22;13201;51.148;13.738;2023-02-01T00:31:16;5.30;99.90
25250;DHT22;13201;51.148;13.738;2023-02-01T00:33:41;5.40;99.90
25250;DHT22;13201;51.148;13.738;2023-02-01T00:36:08;5.40;99.90
25250;DHT22;13201;51.148;13.738;2023-02-01T00:38:37;5.40;99.90
25250;DHT22;13201;51.148;13.738;2023-02-01T00:41:11;5.40;99.90
25250;DHT22;13201;51.148;13.738;2023-02-01T00:43:38;5.40;99.90
25250;DHT22;13201;51.148;13.738;2023-02-01T00:46:04;5.40;99.90
25250;DHT22;13201;51.148;13.738;2023-02-01T00:48:30;5.50;99.90
25250;DHT22;13201;51.148;13.738;2023-02-01T00:51:00;5.40;99.90
25250;DHT22;13201;51.148;13.738;2023-02-01T00:53:26;5.40;99.90
25250;DHT22;13201;51.148;13.738;2023-02-01T00:55:52;5.50;99.90
25250;DHT22;13201;51.148;13.738;2023-02-01T00:58:17;5.40;99.90
25250;DHT22;13201;51.148;13.738;2023-02-01T01:00:44;5.30;99.90
25250;DHT22;13201;51.148;13.738;2023-02-01T01:03:09;5.30;99.90
25250;DHT22;13201;51.148;13.738;2023-02-01T01:31:03;4.80;99.90
25250;DHT22;13201;51.148;13.738;2023-02-01T01:33:29;4.80;99.90
25250;DHT22;13201;51.148;13.738;2023-02-01T01:35:54;4.80;99.90
25250;DHT22;13201;51.148;13.738;2023-02-01T01:38:20;5.00;99.90
25250;DHT22;13201;51.148;13.738;2023-02-01T01:40:47;5.00;99.90
25250;DHT22;13201;51.148;13.738;2023-02-01T01:43:15;5.10;99.90
25250;DHT22;13201;51.148;13.738;2023-02-01T01:45:41;5.10;99.90
25250;DHT22;13201;51.148;13.738;2023-02-01T01:48:12;5.20;99.90
25250;DHT22;13201;51.148;13.738;2023-02-01T01:50:58;5.20;99.90
25250;DHT22;13201;51.148;13.738;2023-02-01T01:53:33;5.30;99.90
25250;DHT22;13201;51.148;13.738;2023-02-01T01:56:00;5.30;99.90
25250;DHT22;13201;51.148;13.738;2023-02-01T01:58:28;5.30;99.90
25250;DHT22;13201;51.148;13.738;2023-02-01T02:00:56;5.30;99.90
25250;DHT22;13201;51.148;13.738;2023-02-01T02:03:28;5.30;99.90
25250;DHT22;13201;51.148;13.738;2023-02-01T02:05:57;5.30;99.90
25250;DHT22;13201;51.148;13.738;2023-02-01T02:08:25;5.30;99.90
25250;DHT22;13201;51.148;13.738;2023-02-01T02:10:52;5.40;99.90
25250;DHT22;13201;51.148;13.738;2023-02-01T02:13:41;5.30;99.90
25250;DHT22;13201;51.148;13.738;2023-02-01T02:21:42;5.40;99.90
25250;DHT22;13201;51.148;13.738;2023-02-01T02:43:42;5.30;99.90
25250;DHT22;13201;51.148;13.738;2023-02-01T02:46:44;5.30;99.90
25250;DHT22;13201;51.148;13.738;2023-02-01T02:49:40;5.30;99.90
25250;DHT22;13201;51.148;13.738;2023-02-01T02:52:16;5.20;99.90
25250;DHT22;13201;51.148;13.738;2023-02-01T02:55:04;5.20;99.90
25250;DHT22;13201;51.148;13.738;2023-02-01T02:57:40;5.20;99.90
25250;DHT22;13201;51.148;13.738;2023-02-01T03:00:31;5.20;99.90
25250;DHT22;13201;51.148;13.738;2023-02-01T03:03:16;5.20;99.90
25250;DHT22;13201;51.148;13.738;2023-02-01T03:06:01;5.20;99.90
25250;DHT22;13201;51.148;13.738;2023-02-01T03:08:30;5.20;99.90
25250;DHT22;13201;51.148;13.738;2023-02-01T03:11:11;5.20;99.90
25250;DHT22;13201;51.148;13.738;2023-02-01T03:13:56;5.20;99.90
25250;DHT22;13201;51.148;13.738;2023-02-01T03:16:29;5.20;99.90
25250;DHT22;13201;51.148;13.738;2023-02-01T03:19:02;5.20;99.90
25250;DHT22;13201;51.148;13.738;2023-02-01T03:21:40;5.20;99.90
25250;DHT22;13201;51.148;13.738;2023-02-01T03:24:16;5.20;99.90
25250;DHT22;13201;51.148;13.738;2023-02-01T03:26:49;5.20;99.90
25250;DHT22;13201;51.148;13.738;2023-02-01T03:29:29;5.30;99.90
25250;DHT22;13201;51.148;13.738;2023-02-01T03:31:56;5.30;99.90
25250;DHT22;13201;51.148;13.738;2023-02-01T03:34:22;5.30;99.90
25250;DHT22;13201;51.148;13.738;2023-02-01T03:36:58;5.30;99.90
25250;DHT22;13201;51.148;13.738;2023-02-01T03:39:39;5.30;99.90
25250;DHT22;13201;51.148;13.738;2023-02-01T03:42:29;5.30;99.90
25250;DHT22;13201;51.148;13.738;2023-02-01T03:47:35;5.40;99.90
25250;DHT22;13201;51.148;13.738;2023-02-01T03:50:07;5.30;99.90
25250;DHT22;13201;51.148;13.738;2023-02-01T03:52:44;5.40;99.90
25250;DHT22;13201;51.148;13.738;2023-02-01T03:55:11;5.40;99.90
25250;DHT22;13201;51.148;13.738;2023-02-01T03:57:48;5.30;99.90
25250;DHT22;13201;51.148;13.738;2023-02-01T04:00:21;5.40;99.90
25250;DHT22;13201;51.148;13.738;2023-02-01T04:02:47;5.40;99.90
25250;DHT22;13201;51.148;13.738;2023-02-01T04:05:13;5.40;99.90
25250;DHT22;13201;51.148;13.738;2023-02-01T04:07:39;5.40;99.90
25250;DHT22;13201;51.148;13.738;2023-02-01T04:10:05;5.40;99.90
25250;DHT22;13201;51.148;13.738;2023-02-01T04:12:31;5.40;99.90
25250;DHT22;13201;51.148;13.738;2023-02-01T04:14:57;5.30;99.90
25250;DHT22;13201;51.148;13.738;2023-02-01T04:17:23;5.40;99.90
25250;DHT22;13201;51.148;13.738;2023-02-01T04:19:49;5.40;99.90
25250;DHT22;13201;51.148;13.738;2023-02-01T04:22:15;5.40;99.90
25250;DHT22;13201;51.148;13.738;2023-02-01T04:24:40;5.30;99.90
25250;DHT22;13201;51.148;13.738;2023-02-01T04:27:06;5.40;99.90
25250;DHT22;13201;51.148;13.738;2023-02-01T04:29:32;5.30;99.90
25250;DHT22;13201;51.148;13.738;2023-02-01T04:31:58;5.30;99.90
25250;DHT22;13201;51.148;13.738;2023-02-01T04:34:24;5.30;99.90
25250;DHT22;13201;51.148;13.738;2023-02-01T04:36:50;5.30;99.90
25250;DHT22;13201;51.148;13.738;2023-02-01T04:39:16;5.30;99.90
25250;DHT22;13201;51.148;13.738;2023-02-01T04:41:42;5.30;99.90
25250;DHT22;13201;51.148;13.738;2023-02-01T04:44:18;5.20;99.90
25250;DHT22;13201;51.148;13.738;2023-02-01T04:46:46;5.30;99.90
25250;DHT22;13201;51.148;13.738;2023-02-01T04:49:12;5.30;99.90
25250;DHT22;13201;51.148;13.738;2023-02-01T04:51:38;5.30;99.90
25250;DHT22;13201;51.148;13.738;2023-02-01T04:54:05;5.30;99.90
25250;DHT22;13201;51.148;13.738;2023-02-01T04:56:31;5.30;99.90
25250;DHT22;13201;51.148;13.738;2023-02-01T04:58:56;5.30;99.90
25250;DHT22;13201;51.148;13.738;2023-02-01T05:01:23;5.30;99.90
25250;DHT22;13201;51.148;13.738;2023-02-01T05:03:50;5.30;99.90
25250;DHT22;13201;51.148;13.738;2023-02-01T05:06:16;5.30;99.90
25250;DHT22;13201;51.148;13.738;2023-02-01T05:08:42;5.30;99.90
25250;DHT22;13201;51.148;13.738;2023-02-01T05:11:08;5.30;99.90
25250;DHT22;13201;51.148;13.738;2023-02-01T05:13:53;5.40;99.90
25250;DHT22;13201;51.148;13.738;2023-02-01T05:16:19;5.30;99.90
25250;DHT22;13201;51.148;13.738;2023-02-01T05:18:45;5.30;99.90
25250;DHT22;13201;51.148;13.738;2023-02-01T05:21:11;5.40;99.90
25250;DHT22;13201;51.148;13.738;2023-02-01T05:23:36;5.40;99.90
25250;DHT22;13201;51.148;13.738;2023-02-01T05:26:22;5.30;99.90
25250;DHT22;13201;51.148;13.738;2023-02-01T05:28:48;5.30;99.90
25250;DHT22;13201;51.148;13.738;2023-02-01T05:31:13;5.30;99.90
25250;DHT22;13201;51.148;13.738;2023-02-01T05:33:39;5.30;99.90
25250;DHT22;13201;51.148;13.738;2023-02-01T05:36:05;5.40;99.90
25250;DHT22;13201;51.148;13.738;2023-02-01T05:38:31;5.40;99.90
25250;DHT22;13201;51.148;13.738;2023-02-01T05:40:57;5.30;99.90
25250;DHT22;13201;51.148;13.738;2023-02-01T05:43:23;5.40;99.90
25250;DHT22;13201;51.148;13.738;2023-02-01T05:45:49;5.40;99.90
25250;DHT22;13201;51.148;13.738;2023-02-01T05:48:14;5.40;99.90
25250;DHT22;13201;51.148;13.738;2023-02-01T05:50:40;5.40;99.90
25250;DHT22;13201;51.148;13.738;2023-02-01T05:53:06;5.40;99.90
25250;DHT22;13201;51.148;13.738;2023-02-01T05:55:32;5.40;99.90
25250;DHT22;13201;51.148;13.738;2023-02-01T05:57:57;5.40;99.90
25250;DHT22;13201;51.148;13.738;2023-02-01T06:00:23;5.50;99.90
25250;DHT22;13201;51.148;13.738;2023-02-01T06:02:49;5.40;99.90
25250;DHT22;13201;51.148;13.738;2023-02-01T06:05:15;5.40;99.90
25250;DHT22;13201;51.148;13.738;2023-02-01T06:07:40;5.40;99.90
25250;DHT22;13201;51.148;13.738;2023-02-01T06:10:06;5.40;99.90
25250;DHT22;13201;51.148;13.738;2023-02-01T06:12:32;5.30;99.90
25250;DHT22;13201;51.148;13.738;2023-02-01T06:14:58;5.40;99.90
25250;DHT22;13201;51.148;13.738;2023-02-01T06:17:24;5.40;99.90
25250;DHT22;13201;51.148;13.738;2023-02-01T06:19:50;5.30;99.90
25250;DHT22;13201;51.148;13.738;2023-02-01T06:22:16;5.30;99.90
25250;DHT22;13201;51.148;13.738;2023-02-01T06:24:42;5.40;99.90
25250;DHT22;13201;51.148;13.738;2023-02-01T06:27:07;5.40;99.90
25250;DHT22;13201;51.148;13.738;2023-02-01T06:29:34;5.40;99.90
25250;DHT22;13201;51.148;13.738;2023-02-01T06:32:00;5.40;99.90
25250;DHT22;13201;51.148;13.738;2023-02-01T06:34:26;5.40;99.90
25250;DHT22;13201;51.148;13.738;2023-02-01T06:36:51;5.40;99.90
25250;DHT22;13201;51.148;13.738;2023-02-01T06:39:17;5.40;99.90
25250;DHT22;13201;51.148;13.738;2023-02-01T06:41:46;5.40;99.90
25250;DHT22;13201;51.148;13.738;2023-02-01T06:44:12;5.40;99.90
25250;DHT22;13201;51.148;13.738;2023-02-01T06:46:38;5.40;99.90
25250;DHT22;13201;51.148;13.738;2023-02-01T06:49:04;5.40;99.90
25250;DHT22;13201;51.148;13.738;2023-02-01T06:51:29;5.40;99.90
25250;DHT22;13201;51.148;13.738;2023-02-01T06:53:55;5.40;99.90
25250;DHT22;13201;51.148;13.738;2023-02-01T06:56:21;5.40;99.90
25250;DHT22;13201;51.148;13.738;2023-02-01T06:58:48;5.40;99.90
25250;DHT22;13201;51.148;13.738;2023-02-01T07:01:14;5.40;99.90
25250;DHT22;13201;51.148;13.738;2023-02-01T07:03:40;5.40;99.90
25250;DHT22;13201;51.148;13.738;2023-02-01T07:06:06;5.40;99.90
25250;DHT22;13201;51.148;13.738;2023-02-01T07:08:35;5.40;99.90
25250;DHT22;13201;51.148;13.738;2023-02-01T07:11:05;5.40;99.90
25250;DHT22;13201;51.148;13.738;2023-02-01T07:13:31;5.30;99.90
25250;DHT22;13201;51.148;13.738;2023-02-01T07:16:02;5.30;99.90
25250;DHT22;13201;51.148;13.738;2023-02-01T07:18:29;5.40;99.90
25250;DHT22;13201;51.148;13.738;2023-02-01T07:20:55;5.30;99.90
25250;DHT22;13201;51.148;13.738;2023-02-01T07:23:21;5.30;99.90
25250;DHT22;13201;51.148;13.738;2023-02-01T07:25:47;5.20;99.90
25250;DHT22;13201;51.148;13.738;2023-02-01T07:28:13;5.00;99.90
25250;DHT22;13201;51.148;13.738;2023-02-01T07:30:39;4.90;99.90
25250;DHT22;13201;51.148;13.738;2023-02-01T07:33:06;4.90;99.90
25250;DHT22;13201;51.148;13.738;2023-02-01T07:35:32;4.90;99.90
25250;DHT22;13201;51.148;13.738;2023-02-01T07:37:58;4.90;99.90
25250;DHT22;13201;51.148;13.738;2023-02-01T07:40:24;4.90;99.90
25250;DHT22;13201;51.148;13.738;2023-02-01T07:42:56;4.90;99.90
25250;DHT22;13201;51.148;13.738;2023-02-01T07:45:22;4.90;99.90
25250;DHT22;13201;51.148;13.738;2023-02-01T07:47:48;4.90;99.90
25250;DHT22;13201;51.148;13.738;2023-02-01T07:50:14;4.90;99.90
25250;DHT22;13201;51.148;13.738;2023-02-01T07:52:40;4.90;99.90
25250;DHT22;13201;51.148;13.738;2023-02-01T07:55:07;5.00;99.90
25250;DHT22;13201;51.148;13.738;2023-02-01T07:57:32;5.00;99.90
25250;DHT22;13201;51.148;13.738;2023-02-01T07:59:58;5.00;99.90
25250;DHT22;13201;51.148;13.738;2023-02-01T08:02:42;5.00;99.90
25250;DHT22;13201;51.148;13.738;2023-02-01T08:05:08;5.00;99.90
25250;DHT22;13201;51.148;13.738;2023-02-01T08:07:34;5.10;99.90
25250;DHT22;13201;51.148;13.738;2023-02-01T08:09:59;5.00;99.90
25250;DHT22;13201;51.148;13.738;2023-02-01T08:12:25;5.00;99.90
25250;DHT22;13201;51.148;13.738;2023-02-01T08:14:52;5.00;99.90
25250;DHT22;13201;51.148;13.738;2023-02-01T08:17:19;4.90;99.90
25250;DHT22;13201;51.148;13.738;2023-02-01T08:19:45;4.90;99.90
25250;DHT22;13201;51.148;13.738;2023-02-01T08:22:11;5.00;99.90
25250;DHT22;13201;51.148;13.738;2023-02-01T08:24:36;5.00;99.90
25250;DHT22;13201;51.148;13.738;2023-02-01T08:27:05;4.90;99.90
25250;DHT22;13201;51.148;13.738;2023-02-01T08:29:31;4.90;99.90
25250;DHT22;13201;51.148;13.738;2023-02-01T08:31:58;4.80;99.90
25250;DHT22;13201;51.148;13.738;2023-02-01T08:34:23;4.90;99.90
25250;DHT22;13201;51.148;13.738;2023-02-01T08:36:49;4.80;99.90
25250;DHT22;13201;51.148;13.738;2023-02-01T08:39:17;4.80;99.90
25250;DHT22;13201;51.148;13.738;2023-02-01T08:41:43;4.90;99.90
25250;DHT22;13201;51.148;13.738;2023-02-01T08:44:28;5.00;99.90
25250;DHT22;13201;51.148;13.738;2023-02-01T08:46:54;5.10;99.90
25250;DHT22;13201;51.148;13.738;2023-02-01T08:49:19;5.00;99.90
25250;DHT22;13201;51.148;13.738;2023-02-01T08:51:45;5.10;99.90
25250;DHT22;13201;51.148;13.738;2023-02-01T08:54:11;5.20;99.90
25250;DHT22;13201;51.148;13.738;2023-02-01T08:56:36;5.30;99.90
25250;DHT22;13201;51.148;13.738;2023-02-01T08:59:02;5.40;99.90
25250;DHT22;13201;51.148;13.738;2023-02-01T09:01:28;5.50;99.90
25250;DHT22;13201;51.148;13.738;2023-02-01T09:03:53;5.50;99.90
25250;DHT22;13201;51.148;13.738;2023-02-01T09:06:19;5.50;99.90
25250;DHT22;13201;51.148;13.738;2023-02-01T09:08:45;5.50;99.90
25250;DHT22;13201;51.148;13.738;2023-02-01T09:11:16;5.50;99.90
25250;DHT22;13201;51.148;13.738;2023-02-01T09:13:42;5.60;99.90
25250;DHT22;13201;51.148;13.738;2023-02-01T09:16:08;5.60;99.90
25250;DHT22;13201;51.148;13.738;2023-02-01T09:18:34;5.60;99.90
25250;DHT22;13201;51.148;13.738;2023-02-01T09:21:04;5.60;99.90
25250;DHT22;13201;51.148;13.738;2023-02-01T09:23:31;5.60;99.90
25250;DHT22;13201;51.148;13.738;2023-02-01T09:26:01;5.60;99.90
25250;DHT22;13201;51.148;13.738;2023-02-01T09:28:27;5.60;99.90
25250;DHT22;13201;51.148;13.738;2023-02-01T09:30:59;5.60;99.90
25250;DHT22;13201;51.148;13.738;2023-02-01T09:33:26;5.70;99.90
25250;DHT22;13201;51.148;13.738;2023-02-01T09:35:55;5.60;99.90
25250;DHT22;13201;51.148;13.738;2023-02-01T09:38:21;5.60;99.90
25250;DHT22;13201;51.148;13.738;2023-02-01T09:40:47;5.50;99.90
25250;DHT22;13201;51.148;13.738;2023-02-01T09:43:42;5.40;99.90
25250;DHT22;13201;51.148;13.738;2023-02-01T09:46:31;5.40;99.90
25250;DHT22;13201;51.148;13.738;2023-02-01T09:49:04;5.30;99.90
25250;DHT22;13201;51.148;13.738;2023-02-01T09:51:37;5.10;99.90
25250;DHT22;13201;51.148;13.738;2023-02-01T09:54:08;4.90;99.90
25250;DHT22;13201;51.148;13.738;2023-02-01T09:56:41;4.80;99.90
25250;DHT22;13201;51.148;13.738;2023-02-01T09:59:31;4.70;99.90
25250;DHT22;13201;51.148;13.738;2023-02-01T10:02:00;4.50;99.90
25250;DHT22;13201;51.148;13.738;2023-02-01T10:04:27;4.50;99.90
25250;DHT22;13201;51.148;13.738;2023-02-01T10:26:42;4.20;99.90
25250;DHT22;13201;51.148;13.738;2023-02-01T10:29:16;4.30;99.90
25250;DHT22;13201;51.148;13.738;2023-02-01T10:31:44;4.30;99.90
25250;DHT22;13201;51.148;13.738;2023-02-01T10:39:26;4.50;99.90
25250;DHT22;13201;51.148;13.738;2023-02-01T10:41:54;4.50;99.90
25250;DHT22;13201;51.148;13.738;2023-02-01T10:44:25;4.50;99.90
25250;DHT22;13201;51.148;13.738;2023-02-01T10:46:51;4.60;99.90
25250;DHT22;13201;51.148;13.738;2023-02-01T10:49:22;4.60;99.90
25250;DHT22;13201;51.148;13.738;2023-02-01T10:54:37;4.70;99.90
25250;DHT22;13201;51.148;13.738;2023-02-01T10:57:26;4.80;99.90
25250;DHT22;13201;51.148;13.738;2023-02-01T10:59:54;4.90;99.90
25250;DHT22;13201;51.148;13.738;2023-02-01T11:02:30;4.90;99.90
25250;DHT22;13201;51.148;13.738;2023-02-01T11:05:09;5.00;99.90
25250;DHT22;13201;51.148;13.738;2023-02-01T11:07:36;5.10;99.90
25250;DHT22;13201;51.148;13.738;2023-02-01T11:10:03;5.10;99.90
25250;DHT22;13201;51.148;13.738;2023-02-01T11:12:35;5.30;99.90
25250;DHT22;13201;51.148;13.738;2023-02-01T11:15:21;5.40;99.90
25250;DHT22;13201;51.148;13.738;2023-02-01T11:17:49;5.40;99.90
25250;DHT22;13201;51.148;13.738;2023-02-01T11:22:57;5.60;99.90
25250;DHT22;13201;51.148;13.738;2023-02-01T11:25:24;5.60;99.90
25250;DHT22;13201;51.148;13.738;2023-02-01T11:27:51;5.60;99.90
25250;DHT22;13201;51.148;13.738;2023-02-01T11:30:26;5.50;99.90
25250;DHT22;13201;51.148;13.738;2023-02-01T11:32:54;5.50;99.90
25250;DHT22;13201;51.148;13.738;2023-02-01T11:35:21;5.40;99.90
25250;DHT22;13201;51.148;13.738;2023-02-01T11:37:54;5.50;99.90
25250;DHT22;13201;51.148;13.738;2023-02-01T11:40:26;5.60;99.90
25250;DHT22;13201;51.148;13.738;2023-02-01T11:43:16;5.60;99.90
25250;DHT22;13201;51.148;13.738;2023-02-01T11:48:25;5.60;99.90
25250;DHT22;13201;51.148;13.738;2023-02-01T12:06:55;5.30;99.90
25250;DHT22;13201;51.148;13.738;2023-02-01T12:21:12;5.60;99.90
25250;DHT22;13201;51.148;13.738;2023-02-01T12:27:14;5.80;99.90
25250;DHT22;13201;51.148;13.738;2023-02-01T12:42:47;6.20;99.90
25250;DHT22;13201;51.148;13.738;2023-02-01T12:45:22;6.20;99.90
25250;DHT22;13201;51.148;13.738;2023-02-01T12:47:55;6.10;99.90
25250;DHT22;13201;51.148;13.738;2023-02-01T12:52:53;6.30;99.90
25250;DHT22;13201;51.148;13.738;2023-02-01T12:55:23;6.30;99.90
25250;DHT22;13201;51.148;13.738;2023-02-01T12:57:55;6.30;99.90
25250;DHT22;13201;51.148;13.738;2023-02-01T13:06:17;6.20;99.90
25250;DHT22;13201;51.148;13.738;2023-02-01T13:14:05;6.40;99.90
25250;DHT22;13201;51.148;13.738;2023-02-01T13:16:43;6.40;99.90
25250;DHT22;13201;51.148;13.738;2023-02-01T13:19:24;6.40;99.90
25250;DHT22;13201;51.148;13.738;2023-02-01T13:22:02;6.40;99.90
25250;DHT22;13201;51.148;13.738;2023-02-01T13:24:44;6.40;99.90
25250;DHT22;13201;51.148;13.738;2023-02-01T13:27:15;6.50;99.90
25250;DHT22;13201;51.148;13.738;2023-02-01T13:37:57;6.60;99.90
25250;DHT22;13201;51.148;13.738;2023-02-01T13:40:45;6.60;99.90
25250;DHT22;13201;51.148;13.738;2023-02-01T13:43:16;6.60;99.90
25250;DHT22;13201;51.148;13.738;2023-02-01T13:45:53;6.60;99.90
25250;DHT22;13201;51.148;13.738;2023-02-01T13:48:27;6.70;99.90
25250;DHT22;13201;51.148;13.738;2023-02-01T13:50:56;6.60;99.90
25250;DHT22;13201;51.148;13.738;2023-02-01T13:53:30;6.60;99.90
25250;DHT22;13201;51.148;13.738;2023-02-01T13:56:01;6.60;99.90
25250;DHT22;13201;51.148;13.738;2023-02-01T13:58:33;6.60;99.90
25250;DHT22;13201;51.148;13.738;2023-02-01T14:03:57;6.50;99.90
25250;DHT22;13201;51.148;13.738;2023-02-01T14:11:46;6.60;99.90
25250;DHT22;13201;51.148;13.738;2023-02-01T14:19:29;6.60;99.90
25250;DHT22;13201;51.148;13.738;2023-02-01T14:21:57;6.60;99.90
25250;DHT22;13201;51.148;13.738;2023-02-01T14:26:55;6.60;99.90
25250;DHT22;13201;51.148;13.738;2023-02-01T14:29:27;6.70;99.90
25250;DHT22;13201;51.148;13.738;2023-02-01T14:32:21;6.60;99.90
25250;DHT22;13201;51.148;13.738;2023-02-01T14:42:24;6.60;99.90
25250;DHT22;13201;51.148;13.738;2023-02-01T14:44:50;6.60;99.90
25250;DHT22;13201;51.148;13.738;2023-02-01T15:03:53;6.50;99.90
25250;DHT22;13201;51.148;13.738;2023-02-01T15:06:46;6.50;99.90
25250;DHT22;13201;51.148;13.738;2023-02-01T15:09:28;6.40;99.90
25250;DHT22;13201;51.148;13.738;2023-02-01T15:12:03;6.40;99.90
25250;DHT22;13201;51.148;13.738;2023-02-01T15:17:15;6.40;99.90
25250;DHT22;13201;51.148;13.738;2023-02-01T15:19:59;6.30;99.90
25250;DHT22;13201;51.148;13.738;2023-02-01T15:22:26;6.30;99.90
25250;DHT22;13201;51.148;13.738;2023-02-01T15:24:57;6.20;99.90
25250;DHT22;13201;51.148;13.738;2023-02-01T15:27:24;6.20;99.90
25250;DHT22;13201;51.148;13.738;2023-02-01T15:29:50;6.20;99.90
25250;DHT22;13201;51.148;13.738;2023-02-01T15:32:39;6.20;99.90
25250;DHT22;13201;51.148;13.738;2023-02-01T15:35:06;6.10;99.90
25250;DHT22;13201;51.148;13.738;2023-02-01T15:37:51;6.30;99.90
25250;DHT22;13201;51.148;13.738;2023-02-01T15:40:21;6.20;99.90
25250;DHT22;13201;51.148;13.738;2023-02-01T15:42:54;6.20;99.90
25250;DHT22;13201;51.148;13.738;2023-02-01T15:45:25;6.10;99.90
25250;DHT22;13201;51.148;13.738;2023-02-01T15:47:53;6.10;99.90
25250;DHT22;13201;51.148;13.738;2023-02-01T15:50:20;6.10;99.90
25250;DHT22;13201;51.148;13.738;2023-02-01T15:52:51;6.10;99.90
25250;DHT22;13201;51.148;13.738;2023-02-01T15:55:21;6.10;99.90
25250;DHT22;13201;51.148;13.738;2023-02-01T15:57:48;6.10;99.90
25250;DHT22;13201;51.148;13.738;2023-02-01T16:02:54;6.10;99.90
25250;DHT22;13201;51.148;13.738;2023-02-01T16:05:39;6.10;99.90
25250;DHT22;13201;51.148;13.738;2023-02-01T16:08:15;6.10;99.90
25250;DHT22;13201;51.148;13.738;2023-02-01T16:10:43;6.00;99.90
25250;DHT22;13201;51.148;13.738;2023-02-01T16:13:11;6.10;99.90
25250;DHT22;13201;51.148;13.738;2023-02-01T16:15:37;5.90;99.90
25250;DHT22;13201;51.148;13.738;2023-02-01T16:18:03;5.80;99.90
25250;DHT22;13201;51.148;13.738;2023-02-01T16:20:29;5.80;99.90
25250;DHT22;13201;51.148;13.738;2023-02-01T16:22:55;5.80;99.90
25250;DHT22;13201;51.148;13.738;2023-02-01T16:25:21;5.80;99.90
25250;DHT22;13201;51.148;13.738;2023-02-01T16:27:47;5.80;99.90
25250;DHT22;13201;51.148;13.738;2023-02-01T16:30:12;5.80;99.90
25250;DHT22;13201;51.148;13.738;2023-02-01T16:32:38;5.70;99.90
25250;DHT22;13201;51.148;13.738;2023-02-01T16:35:21;5.60;99.90
25250;DHT22;13201;51.148;13.738;2023-02-01T16:37:48;5.60;99.90
25250;DHT22;13201;51.148;13.738;2023-02-01T16:40:15;5.60;99.90
25250;DHT22;13201;51.148;13.738;2023-02-01T16:42:41;5.50;99.90
25250;DHT22;13201;51.148;13.738;2023-02-01T16:45:07;5.40;99.90
25250;DHT22;13201;51.148;13.738;2023-02-01T16:47:34;5.20;99.90
25250;DHT22;13201;51.148;13.738;2023-02-01T16:50:01;5.10;99.90
25250;DHT22;13201;51.148;13.738;2023-02-01T16:52:27;4.90;99.90
25250;DHT22;13201;51.148;13.738;2023-02-01T16:54:53;4.70;99.90
25250;DHT22;13201;51.148;13.738;2023-02-01T16:57:20;4.40;99.90
25250;DHT22;13201;51.148;13.738;2023-02-01T16:59:49;4.40;99.90
25250;DHT22;13201;51.148;13.738;2023-02-01T17:02:16;4.30;99.90
25250;DHT22;13201;51.148;13.738;2023-02-01T17:04:44;3.70;99.90
25250;DHT22;13201;51.148;13.738;2023-02-01T17:07:17;3.60;99.90
25250;DHT22;13201;51.148;13.738;2023-02-01T17:09:44;3.40;99.90
25250;DHT22;13201;51.148;13.738;2023-02-01T17:12:29;3.40;99.90
25250;DHT22;13201;51.148;13.738;2023-02-01T17:14:56;3.40;99.90
25250;DHT22;13201;51.148;13.738;2023-02-01T17:17:22;3.40;99.90
25250;DHT22;13201;51.148;13.738;2023-02-01T17:19:51;3.60;99.90
25250;DHT22;13201;51.148;13.738;2023-02-01T17:22:19;3.80;99.90
25250;DHT22;13201;51.148;13.738;2023-02-01T17:24:46;3.90;99.90
25250;DHT22;13201;51.148;13.738;2023-02-01T17:27:11;4.00;99.90
25250;DHT22;13201;51.148;13.738;2023-02-01T17:29:37;3.90;99.90
25250;DHT22;13201;51.148;13.738;2023-02-01T17:32:03;4.00;99.90
25250;DHT22;13201;51.148;13.738;2023-02-01T17:34:29;4.00;99.90
25250;DHT22;13201;51.148;13.738;2023-02-01T17:36:55;3.80;99.90
25250;DHT22;13201;51.148;13.738;2023-02-01T17:39:21;3.90;99.90
25250;DHT22;13201;51.148;13.738;2023-02-01T17:42:09;3.70;99.90
25250;DHT22;13201;51.148;13.738;2023-02-01T17:44:36;3.70;99.90
25250;DHT22;13201;51.148;13.738;2023-02-01T17:47:01;3.70;99.90
25250;DHT22;13201;51.148;13.738;2023-02-01T17:49:27;3.80;99.90
25250;DHT22;13201;51.148;13.738;2023-02-01T17:51:54;3.70;99.90
25250;DHT22;13201;51.148;13.738;2023-02-01T17:54:19;3.70;99.90
25250;DHT22;13201;51.148;13.738;2023-02-01T17:56:45;3.60;99.90
25250;DHT22;13201;51.148;13.738;2023-02-01T17:59:14;3.60;99.90
25250;DHT22;13201;51.148;13.738;2023-02-01T18:01:40;3.60;99.90
25250;DHT22;13201;51.148;13.738;2023-02-01T18:04:16;3.50;99.90
25250;DHT22;13201;51.148;13.738;2023-02-01T18:06:42;3.50;99.90
25250;DHT22;13201;51.148;13.738;2023-02-01T18:09:09;3.40;99.90
25250;DHT22;13201;51.148;13.738;2023-02-01T18:11:35;3.50;99.90
25250;DHT22;13201;51.148;13.738;2023-02-01T18:14:01;3.40;99.90
25250;DHT22;13201;51.148;13.738;2023-02-01T18:16:29;3.40;99.90
25250;DHT22;13201;51.148;13.738;2023-02-01T18:18:55;3.40;99.90
25250;DHT22;13201;51.148;13.738;2023-02-01T18:21:43;3.30;99.90
25250;DHT22;13201;51.148;13.738;2023-02-01T18:24:12;3.40;99.90
25250;DHT22;13201;51.148;13.738;2023-02-01T18:26:39;3.40;99.90
25250;DHT22;13201;51.148;13.738;2023-02-01T18:29:05;3.50;99.90
25250;DHT22;13201;51.148;13.738;2023-02-01T18:31:31;3.50;99.90
25250;DHT22;13201;51.148;13.738;2023-02-01T18:33:59;3.60;99.90
25250;DHT22;13201;51.148;13.738;2023-02-01T18:36:25;3.60;99.90
25250;DHT22;13201;51.148;13.738;2023-02-01T18:38:51;3.60;99.90
25250;DHT22;13201;51.148;13.738;2023-02-01T18:41:21;3.60;99.90
25250;DHT22;13201;51.148;13.738;2023-02-01T18:43:48;3.70;99.90
25250;DHT22;13201;51.148;13.738;2023-02-01T18:46:14;3.70;99.90
25250;DHT22;13201;51.148;13.738;2023-02-01T18:48:41;3.70;99.90
25250;DHT22;13201;51.148;13.738;2023-02-01T18:51:12;3.70;99.90
25250;DHT22;13201;51.148;13.738;2023-02-01T18:53:38;3.80;99.90
25250;DHT22;13201;51.148;13.738;2023-02-01T18:56:05;3.80;99.90
25250;DHT22;13201;51.148;13.738;2023-02-01T18:58:30;3.80;99.90
25250;DHT22;13201;51.148;13.738;2023-02-01T19:00:57;3.80;99.90
25250;DHT22;13201;51.148;13.738;2023-02-01T19:03:28;4.00;99.90
25250;DHT22;13201;51.148;13.738;2023-02-01T19:05:55;3.90;99.90